sensor_id;sensor_type;location;lat;lon;timestamp;P1;durP1;ratioP1;P2;durP2;ratioP2
32214;SDS011;18708;53.124;23.190;2023-12-04T00:02:04;55.80;;;28.85;;
32214;SDS011;18708;53.124;23.190;2023-12-04T00:04:29;50.95;;;28.23;;
32214;SDS011;18708;53.124;23.190;2023-12-04T00:06:55;56.90;;;30.83;;
32214;SDS011;18708;53.124;23.190;2023-12-04T00:09:21;54.25;;;28.52;;
32214;SDS011;18708;53.124;23.190;2023-12-04T00:11:48;57.92;;;30.63;;
32214;SDS011;18708;53.124;23.190;2023-12-04T00:14:14;55.03;;;29.95;;
32214;SDS011;18708;53.124;23.190;2023-12-04T00:16:40;58.33;;;31.02;;
32214;SDS011;18708;53.124;23.190;2023-12-04T00:19:05;57.58;;;30.13;;
32214;SDS011;18708;53.124;23.190;2023-12-04T00:21:32;53.85;;;29.02;;
32214;SDS011;18708;53.124;23.190;2023-12-04T00:23:57;58.22;;;30.52;;
32214;SDS011;18708;53.124;23.190;2023-12-04T00:26:23;62.95;;;30.30;;
32214;SDS011;18708;53.124;23.190;2023-12-04T00:28:49;55.38;;;29.30;;
32214;SDS011;18708;53.124;23.190;2023-12-04T00:31:14;57.03;;;29.00;;
32214;SDS011;18708;53.124;23.190;2023-12-04T00:33:40;60.55;;;30.05;;
32214;SDS011;18708;53.124;23.190;2023-12-04T00:36:06;57.83;;;31.13;;
32214;SDS011;18708;53.124;23.190;2023-12-04T00:38:32;56.88;;;29.15;;
32214;SDS011;18708;53.124;23.190;2023-12-04T00:40:57;57.60;;;30.65;;
32214;SDS011;18708;53.124;23.190;2023-12-04T00:43:23;56.38;;;30.42;;
32214;SDS011;18708;53.124;23.190;2023-12-04T00:45:49;54.38;;;28.27;;
32214;SDS011;18708;53.124;23.190;2023-12-04T00:48:14;57.70;;;29.23;;
32214;SDS011;18708;53.124;23.190;2023-12-04T00:50:40;61.78;;;32.33;;
32214;SDS011;18708;53.124;23.190;2023-12-04T00:53:06;55.05;;;28.40;;
32214;SDS011;18708;53.124;23.190;2023-12-04T00:55:31;58.22;;;29.08;;
32214;SDS011;18708;53.124;23.190;2023-12-04T00:57:57;62.30;;;31.58;;
32214;SDS011;18708;53.124;23.190;2023-12-04T01:00:23;55.55;;;28.08;;
32214;SDS011;18708;53.124;23.190;2023-12-04T01:02:48;58.50;;;29.38;;
32214;SDS011;18708;53.124;23.190;2023-12-04T01:05:14;61.53;;;31.30;;
32214;SDS011;18708;53.124;23.190;2023-12-04T01:07:40;53.50;;;29.77;;
32214;SDS011;18708;53.124;23.190;2023-12-04T01:10:05;57.35;;;30.15;;
32214;SDS011;18708;53.124;23.190;2023-12-04T01:12:31;57.00;;;29.48;;
32214;SDS011;18708;53.124;23.190;2023-12-04T01:14:57;55.28;;;28.98;;
32214;SDS011;18708;53.124;23.190;2023-12-04T01:17:23;56.38;;;29.88;;
32214;SDS011;18708;53.124;23.190;2023-12-04T01:19:48;52.70;;;28.33;;
32214;SDS011;18708;53.124;23.190;2023-12-04T01:22:14;54.85;;;28.15;;
32214;SDS011;18708;53.124;23.190;2023-12-04T01:24:40;54.35;;;30.23;;
32214;SDS011;18708;53.124;23.190;2023-12-04T01:27:05;59.60;;;30.95;;
32214;SDS011;18708;53.124;23.190;2023-12-04T01:29:31;51.65;;;28.67;;
32214;SDS011;18708;53.124;23.190;2023-12-04T01:31:57;54.92;;;29.58;;
32214;SDS011;18708;53.124;23.190;2023-12-04T01:34:23;57.40;;;30.20;;
32214;SDS011;18708;53.124;23.190;2023-12-04T01:36:48;57.20;;;30.45;;
32214;SDS011;18708;53.124;23.190;2023-12-04T01:39:14;57.85;;;31.88;;
32214;SDS011;18708;53.124;23.190;2023-12-04T01:41:39;57.33;;;29.63;;
32214;SDS011;18708;53.124;23.190;2023-12-04T01:44:05;58.45;;;31.05;;
32214;SDS011;18708;53.124;23.190;2023-12-04T01:46:31;56.60;;;30.42;;
32214;SDS011;18708;53.124;23.190;2023-12-04T01:48:57;58.38;;;30.88;;
32214;SDS011;18708;53.124;23.190;2023-12-04T01:51:24;58.65;;;30.65;;
32214;SDS011;18708;53.124;23.190;2023-12-04T01:53:51;56.03;;;30.58;;
32214;SDS011;18708;53.124;23.190;2023-12-04T01:56:17;60.15;;;31.38;;
32214;SDS011;18708;53.124;23.190;2023-12-04T01:58:44;59.95;;;31.35;;
32214;SDS011;18708;53.124;23.190;2023-12-04T02:01:10;62.38;;;30.92;;
32214;SDS011;18708;53.124;23.190;2023-12-04T02:03:36;59.97;;;30.98;;
32214;SDS011;18708;53.124;23.190;2023-12-04T02:06:02;56.47;;;31.05;;
32214;SDS011;18708;53.124;23.190;2023-12-04T02:08:30;59.10;;;30.40;;
32214;SDS011;18708;53.124;23.190;2023-12-04T02:10:56;60.22;;;30.33;;
32214;SDS011;18708;53.124;23.190;2023-12-04T02:13:22;61.88;;;32.63;;
32214;SDS011;18708;53.124;23.190;2023-12-04T02:15:49;52.80;;;29.80;;
32214;SDS011;18708;53.124;23.190;2023-12-04T02:18:18;56.05;;;29.90;;
32214;SDS011;18708;53.124;23.190;2023-12-04T02:20:43;57.08;;;29.67;;
32214;SDS011;18708;53.124;23.190;2023-12-04T02:23:09;56.60;;;30.77;;
32214;SDS011;18708;53.124;23.190;2023-12-04T02:25:35;55.53;;;29.92;;
32214;SDS011;18708;53.124;23.190;2023-12-04T02:28:02;55.75;;;29.58;;
32214;SDS011;18708;53.124;23.190;2023-12-04T02:30:31;54.72;;;29.27;;
32214;SDS011;18708;53.124;23.190;2023-12-04T02:33:03;56.63;;;31.10;;
32214;SDS011;18708;53.124;23.190;2023-12-04T02:35:32;62.83;;;31.40;;
32214;SDS011;18708;53.124;23.190;2023-12-04T02:38:00;58.13;;;31.50;;
32214;SDS011;18708;53.124;23.190;2023-12-04T02:40:27;60.53;;;30.90;;
32214;SDS011;18708;53.124;23.190;2023-12-04T02:42:53;51.67;;;28.13;;
32214;SDS011;18708;53.124;23.190;2023-12-04T02:45:19;58.20;;;31.02;;
32214;SDS011;18708;53.124;23.190;2023-12-04T02:47:45;55.45;;;30.60;;
32214;SDS011;18708;53.124;23.190;2023-12-04T02:50:10;56.50;;;31.25;;
32214;SDS011;18708;53.124;23.190;2023-12-04T02:52:36;54.83;;;28.98;;
32214;SDS011;18708;53.124;23.190;2023-12-04T02:55:02;60.33;;;30.98;;
32214;SDS011;18708;53.124;23.190;2023-12-04T02:57:27;54.45;;;29.90;;
32214;SDS011;18708;53.124;23.190;2023-12-04T02:59:53;56.65;;;30.73;;
32214;SDS011;18708;53.124;23.190;2023-12-04T03:02:19;59.95;;;33.10;;
32214;SDS011;18708;53.124;23.190;2023-12-04T03:04:45;65.25;;;33.40;;
32214;SDS011;18708;53.124;23.190;2023-12-04T03:07:10;57.50;;;30.92;;
32214;SDS011;18708;53.124;23.190;2023-12-04T03:09:36;58.78;;;31.92;;
32214;SDS011;18708;53.124;23.190;2023-12-04T03:12:02;53.80;;;29.52;;
32214;SDS011;18708;53.124;23.190;2023-12-04T03:14:28;57.10;;;31.27;;
32214;SDS011;18708;53.124;23.190;2023-12-04T03:16:53;55.85;;;30.05;;
32214;SDS011;18708;53.124;23.190;2023-12-04T03:19:19;56.95;;;30.15;;
32214;SDS011;18708;53.124;23.190;2023-12-04T03:21:45;54.85;;;29.95;;
32214;SDS011;18708;53.124;23.190;2023-12-04T03:24:10;58.33;;;31.13;;
32214;SDS011;18708;53.124;23.190;2023-12-04T03:26:36;52.10;;;30.27;;
32214;SDS011;18708;53.124;23.190;2023-12-04T03:29:02;57.22;;;30.20;;
32214;SDS011;18708;53.124;23.190;2023-12-04T03:31:27;57.38;;;31.67;;
32214;SDS011;18708;53.124;23.190;2023-12-04T03:33:53;57.65;;;30.92;;
32214;SDS011;18708;53.124;23.190;2023-12-04T03:36:19;51.95;;;29.58;;
32214;SDS011;18708;53.124;23.190;2023-12-04T03:38:45;55.60;;;29.73;;
32214;SDS011;18708;53.124;23.190;2023-12-04T03:41:17;48.95;;;28.00;;
32214;SDS011;18708;53.124;23.190;2023-12-04T03:43:42;56.58;;;30.25;;
32214;SDS011;18708;53.124;23.190;2023-12-04T03:46:08;54.00;;;29.65;;
32214;SDS011;18708;53.124;23.190;2023-12-04T03:48:34;58.75;;;31.00;;
32214;SDS011;18708;53.124;23.190;2023-12-04T03:51:00;53.95;;;29.73;;
32214;SDS011;18708;53.124;23.190;2023-12-04T03:53:26;56.15;;;30.02;;
32214;SDS011;18708;53.124;23.190;2023-12-04T03:55:51;53.50;;;30.17;;
32214;SDS011;18708;53.124;23.190;2023-12-04T03:58:17;48.90;;;26.40;;
32214;SDS011;18708;53.124;23.190;2023-12-04T04:00:43;50.70;;;28.33;;
32214;SDS011;18708;53.124;23.190;2023-12-04T04:03:09;52.50;;;28.05;;
32214;SDS011;18708;53.124;23.190;2023-12-04T04:05:35;48.88;;;28.02;;
32214;SDS011;18708;53.124;23.190;2023-12-04T04:08:01;53.92;;;28.40;;
32214;SDS011;18708;53.124;23.190;2023-12-04T04:10:27;51.85;;;29.67;;
32214;SDS011;18708;53.124;23.190;2023-12-04T04:12:53;50.20;;;27.65;;
32214;SDS011;18708;53.124;23.190;2023-12-04T04:15:18;48.00;;;27.40;;
32214;SDS011;18708;53.124;23.190;2023-12-04T04:17:44;43.70;;;26.70;;
32214;SDS011;18708;53.124;23.190;2023-12-04T04:20:10;48.85;;;26.30;;
32214;SDS011;18708;53.124;23.190;2023-12-04T04:22:37;47.47;;;25.15;;
32214;SDS011;18708;53.124;23.190;2023-12-04T04:25:05;41.40;;;23.05;;
32214;SDS011;18708;53.124;23.190;2023-12-04T04:27:32;38.55;;;22.92;;
32214;SDS011;18708;53.124;23.190;2023-12-04T04:29:57;46.45;;;24.23;;
32214;SDS011;18708;53.124;23.190;2023-12-04T04:32:23;38.13;;;22.23;;
32214;SDS011;18708;53.124;23.190;2023-12-04T04:34:49;40.22;;;23.55;;
32214;SDS011;18708;53.124;23.190;2023-12-04T04:37:15;36.92;;;22.17;;
32214;SDS011;18708;53.124;23.190;2023-12-04T04:39:40;37.90;;;21.77;;
32214;SDS011;18708;53.124;23.190;2023-12-04T04:42:06;35.13;;;19.35;;
32214;SDS011;18708;53.124;23.190;2023-12-04T04:44:32;33.42;;;18.55;;
32214;SDS011;18708;53.124;23.190;2023-12-04T04:46:57;34.47;;;20.00;;
32214;SDS011;18708;53.124;23.190;2023-12-04T04:49:23;32.83;;;19.23;;
32214;SDS011;18708;53.124;23.190;2023-12-04T04:51:48;31.67;;;20.27;;
32214;SDS011;18708;53.124;23.190;2023-12-04T04:54:14;70.45;;;35.30;;
32214;SDS011;18708;53.124;23.190;2023-12-04T04:56:40;32.58;;;21.17;;
32214;SDS011;18708;53.124;23.190;2023-12-04T04:59:05;35.00;;;22.00;;
32214;SDS011;18708;53.124;23.190;2023-12-04T05:01:31;29.35;;;19.23;;
32214;SDS011;18708;53.124;23.190;2023-12-04T05:03:57;33.75;;;20.17;;
32214;SDS011;18708;53.124;23.190;2023-12-04T05:06:22;31.17;;;17.50;;
32214;SDS011;18708;53.124;23.190;2023-12-04T05:08:48;30.83;;;17.85;;
32214;SDS011;18708;53.124;23.190;2023-12-04T05:11:17;28.27;;;17.30;;
32214;SDS011;18708;53.124;23.190;2023-12-04T05:13:44;24.30;;;15.52;;
32214;SDS011;18708;53.124;23.190;2023-12-04T05:16:10;24.70;;;16.00;;
32214;SDS011;18708;53.124;23.190;2023-12-04T05:18:35;26.80;;;17.00;;
32214;SDS011;18708;53.124;23.190;2023-12-04T05:21:01;16.65;;;9.63;;
32214;SDS011;18708;53.124;23.190;2023-12-04T05:23:27;22.45;;;15.40;;
32214;SDS011;18708;53.124;23.190;2023-12-04T05:25:53;21.45;;;13.40;;
32214;SDS011;18708;53.124;23.190;2023-12-04T05:28:19;19.77;;;11.38;;
32214;SDS011;18708;53.124;23.190;2023-12-04T05:30:44;12.45;;;8.05;;
32214;SDS011;18708;53.124;23.190;2023-12-04T05:33:10;13.65;;;8.73;;
32214;SDS011;18708;53.124;23.190;2023-12-04T05:35:36;17.05;;;10.23;;
32214;SDS011;18708;53.124;23.190;2023-12-04T05:38:02;14.18;;;9.57;;
32214;SDS011;18708;53.124;23.190;2023-12-04T05:40:28;16.25;;;9.90;;
32214;SDS011;18708;53.124;23.190;2023-12-04T05:42:53;15.10;;;9.05;;
32214;SDS011;18708;53.124;23.190;2023-12-04T05:45:19;29.48;;;17.48;;
32214;SDS011;18708;53.124;23.190;2023-12-04T05:47:45;14.27;;;9.30;;
32214;SDS011;18708;53.124;23.190;2023-12-04T05:50:11;10.85;;;7.10;;
32214;SDS011;18708;53.124;23.190;2023-12-04T05:52:36;19.02;;;12.18;;
32214;SDS011;18708;53.124;23.190;2023-12-04T05:55:02;12.48;;;8.27;;
32214;SDS011;18708;53.124;23.190;2023-12-04T05:57:28;12.52;;;8.20;;
32214;SDS011;18708;53.124;23.190;2023-12-04T05:59:54;13.73;;;8.13;;
32214;SDS011;18708;53.124;23.190;2023-12-04T06:02:19;13.60;;;7.78;;
32214;SDS011;18708;53.124;23.190;2023-12-04T06:04:45;29.92;;;13.57;;
32214;SDS011;18708;53.124;23.190;2023-12-04T06:07:11;21.08;;;12.50;;
32214;SDS011;18708;53.124;23.190;2023-12-04T06:09:37;14.13;;;9.77;;
32214;SDS011;18708;53.124;23.190;2023-12-04T06:12:03;15.82;;;11.35;;
32214;SDS011;18708;53.124;23.190;2023-12-04T06:14:33;12.98;;;9.40;;
32214;SDS011;18708;53.124;23.190;2023-12-04T06:17:00;14.13;;;9.73;;
32214;SDS011;18708;53.124;23.190;2023-12-04T06:19:27;13.63;;;9.80;;
32214;SDS011;18708;53.124;23.190;2023-12-04T06:21:53;19.00;;;9.82;;
32214;SDS011;18708;53.124;23.190;2023-12-04T06:24:20;17.40;;;10.98;;
32214;SDS011;18708;53.124;23.190;2023-12-04T06:26:46;11.85;;;8.70;;
32214;SDS011;18708;53.124;23.190;2023-12-04T06:29:15;15.25;;;9.45;;
32214;SDS011;18708;53.124;23.190;2023-12-04T06:31:41;16.55;;;11.30;;
32214;SDS011;18708;53.124;23.190;2023-12-04T06:34:07;15.85;;;10.45;;
32214;SDS011;18708;53.124;23.190;2023-12-04T06:36:35;15.73;;;9.10;;
32214;SDS011;18708;53.124;23.190;2023-12-04T06:39:04;15.75;;;10.15;;
32214;SDS011;18708;53.124;23.190;2023-12-04T06:41:38;14.77;;;9.85;;
32214;SDS011;18708;53.124;23.190;2023-12-04T06:44:04;17.73;;;10.18;;
32214;SDS011;18708;53.124;23.190;2023-12-04T06:46:31;17.70;;;10.05;;
32214;SDS011;18708;53.124;23.190;2023-12-04T06:49:01;18.30;;;10.23;;
32214;SDS011;18708;53.124;23.190;2023-12-04T06:51:30;14.95;;;9.65;;
32214;SDS011;18708;53.124;23.190;2023-12-04T06:53:56;16.15;;;11.02;;
32214;SDS011;18708;53.124;23.190;2023-12-04T06:56:21;18.88;;;11.02;;
32214;SDS011;18708;53.124;23.190;2023-12-04T06:58:47;17.95;;;9.55;;
32214;SDS011;18708;53.124;23.190;2023-12-04T07:01:13;14.63;;;9.50;;
32214;SDS011;18708;53.124;23.190;2023-12-04T07:03:38;17.00;;;9.70;;
32214;SDS011;18708;53.124;23.190;2023-12-04T07:06:04;15.50;;;9.98;;
32214;SDS011;18708;53.124;23.190;2023-12-04T07:08:30;19.20;;;10.38;;
32214;SDS011;18708;53.124;23.190;2023-12-04T07:10:56;16.15;;;10.35;;
32214;SDS011;18708;53.124;23.190;2023-12-04T07:13:21;14.63;;;9.77;;
32214;SDS011;18708;53.124;23.190;2023-12-04T07:15:47;19.05;;;10.48;;
32214;SDS011;18708;53.124;23.190;2023-12-04T07:18:13;17.40;;;9.77;;
32214;SDS011;18708;53.124;23.190;2023-12-04T07:20:38;16.75;;;10.60;;
32214;SDS011;18708;53.124;23.190;2023-12-04T07:23:04;16.50;;;11.38;;
32214;SDS011;18708;53.124;23.190;2023-12-04T07:25:29;16.23;;;11.52;;
32214;SDS011;18708;53.124;23.190;2023-12-04T07:27:55;16.48;;;10.98;;
32214;SDS011;18708;53.124;23.190;2023-12-04T07:30:23;17.98;;;11.93;;
32214;SDS011;18708;53.124;23.190;2023-12-04T07:32:49;18.20;;;12.70;;
32214;SDS011;18708;53.124;23.190;2023-12-04T07:35:15;16.75;;;11.65;;
32214;SDS011;18708;53.124;23.190;2023-12-04T07:37:43;17.70;;;11.07;;
32214;SDS011;18708;53.124;23.190;2023-12-04T07:40:09;19.25;;;12.18;;
32214;SDS011;18708;53.124;23.190;2023-12-04T07:42:35;16.85;;;11.35;;
32214;SDS011;18708;53.124;23.190;2023-12-04T07:45:01;19.20;;;11.50;;
32214;SDS011;18708;53.124;23.190;2023-12-04T07:47:28;16.67;;;11.27;;
32214;SDS011;18708;53.124;23.190;2023-12-04T07:49:53;16.35;;;10.73;;
32214;SDS011;18708;53.124;23.190;2023-12-04T07:52:19;16.52;;;11.48;;
32214;SDS011;18708;53.124;23.190;2023-12-04T07:54:45;19.45;;;11.93;;
32214;SDS011;18708;53.124;23.190;2023-12-04T07:57:10;18.73;;;11.63;;
32214;SDS011;18708;53.124;23.190;2023-12-04T07:59:36;54.33;;;28.30;;
32214;SDS011;18708;53.124;23.190;2023-12-04T08:02:02;22.70;;;15.52;;
32214;SDS011;18708;53.124;23.190;2023-12-04T08:04:27;24.20;;;15.07;;
32214;SDS011;18708;53.124;23.190;2023-12-04T08:06:53;17.42;;;11.98;;
32214;SDS011;18708;53.124;23.190;2023-12-04T08:09:19;34.38;;;23.30;;
32214;SDS011;18708;53.124;23.190;2023-12-04T08:11:46;21.35;;;13.38;;
32214;SDS011;18708;53.124;23.190;2023-12-04T08:14:11;21.10;;;12.10;;
32214;SDS011;18708;53.124;23.190;2023-12-04T08:16:37;14.48;;;10.43;;
32214;SDS011;18708;53.124;23.190;2023-12-04T08:19:03;16.25;;;9.80;;
32214;SDS011;18708;53.124;23.190;2023-12-04T08:21:29;14.73;;;10.25;;
32214;SDS011;18708;53.124;23.190;2023-12-04T08:23:54;14.95;;;9.38;;
32214;SDS011;18708;53.124;23.190;2023-12-04T08:26:21;14.15;;;9.77;;
32214;SDS011;18708;53.124;23.190;2023-12-04T08:28:48;20.38;;;11.55;;
32214;SDS011;18708;53.124;23.190;2023-12-04T08:31:14;15.52;;;10.05;;
32214;SDS011;18708;53.124;23.190;2023-12-04T08:33:40;22.65;;;14.57;;
32214;SDS011;18708;53.124;23.190;2023-12-04T08:36:06;19.77;;;11.93;;
32214;SDS011;18708;53.124;23.190;2023-12-04T08:38:32;133.55;;;85.18;;
32214;SDS011;18708;53.124;23.190;2023-12-04T08:40:58;38.80;;;25.25;;
32214;SDS011;18708;53.124;23.190;2023-12-04T08:43:24;36.28;;;22.33;;
32214;SDS011;18708;53.124;23.190;2023-12-04T08:45:49;40.05;;;24.15;;
32214;SDS011;18708;53.124;23.190;2023-12-04T08:48:15;53.55;;;38.08;;
32214;SDS011;18708;53.124;23.190;2023-12-04T08:50:40;17.85;;;13.27;;
32214;SDS011;18708;53.124;23.190;2023-12-04T08:53:06;25.13;;;17.13;;
32214;SDS011;18708;53.124;23.190;2023-12-04T08:55:32;29.20;;;20.52;;
32214;SDS011;18708;53.124;23.190;2023-12-04T08:57:58;34.90;;;23.23;;
32214;SDS011;18708;53.124;23.190;2023-12-04T09:00:23;28.90;;;18.25;;
32214;SDS011;18708;53.124;23.190;2023-12-04T09:02:49;37.05;;;27.63;;
32214;SDS011;18708;53.124;23.190;2023-12-04T09:05:15;30.85;;;18.27;;
32214;SDS011;18708;53.124;23.190;2023-12-04T09:07:42;48.53;;;35.95;;
32214;SDS011;18708;53.124;23.190;2023-12-04T09:10:08;46.10;;;35.15;;
32214;SDS011;18708;53.124;23.190;2023-12-04T09:12:34;65.93;;;43.40;;
32214;SDS011;18708;53.124;23.190;2023-12-04T09:15:02;36.38;;;23.92;;
32214;SDS011;18708;53.124;23.190;2023-12-04T09:17:28;32.25;;;18.73;;
32214;SDS011;18708;53.124;23.190;2023-12-04T09:19:53;27.05;;;17.30;;
32214;SDS011;18708;53.124;23.190;2023-12-04T09:22:20;29.55;;;16.35;;
32214;SDS011;18708;53.124;23.190;2023-12-04T09:24:46;59.55;;;37.75;;
32214;SDS011;18708;53.124;23.190;2023-12-04T09:27:11;39.78;;;23.45;;
32214;SDS011;18708;53.124;23.190;2023-12-04T09:29:37;61.33;;;40.30;;
32214;SDS011;18708;53.124;23.190;2023-12-04T09:32:03;37.63;;;24.27;;
32214;SDS011;18708;53.124;23.190;2023-12-04T09:34:29;43.13;;;29.48;;
32214;SDS011;18708;53.124;23.190;2023-12-04T09:36:54;38.20;;;23.95;;
32214;SDS011;18708;53.124;23.190;2023-12-04T09:39:20;27.33;;;16.90;;
32214;SDS011;18708;53.124;23.190;2023-12-04T09:41:46;24.30;;;16.30;;
32214;SDS011;18708;53.124;23.190;2023-12-04T09:44:13;21.23;;;12.77;;
32214;SDS011;18708;53.124;23.190;2023-12-04T09:46:39;40.90;;;21.98;;
32214;SDS011;18708;53.124;23.190;2023-12-04T09:49:05;45.88;;;26.45;;
32214;SDS011;18708;53.124;23.190;2023-12-04T09:51:32;28.60;;;17.38;;
32214;SDS011;18708;53.124;23.190;2023-12-04T09:53:59;99.28;;;51.58;;
32214;SDS011;18708;53.124;23.190;2023-12-04T09:56:29;45.22;;;31.13;;
32214;SDS011;18708;53.124;23.190;2023-12-04T09:58:58;38.35;;;24.90;;
32214;SDS011;18708;53.124;23.190;2023-12-04T10:01:25;33.42;;;22.63;;
32214;SDS011;18708;53.124;23.190;2023-12-04T10:03:52;44.63;;;28.10;;
32214;SDS011;18708;53.124;23.190;2023-12-04T10:06:18;47.13;;;32.78;;
32214;SDS011;18708;53.124;23.190;2023-12-04T10:08:44;78.50;;;59.08;;
32214;SDS011;18708;53.124;23.190;2023-12-04T10:11:12;22.23;;;16.15;;
32214;SDS011;18708;53.124;23.190;2023-12-04T10:13:40;29.77;;;21.88;;
32214;SDS011;18708;53.124;23.190;2023-12-04T10:16:06;49.00;;;35.03;;
32214;SDS011;18708;53.124;23.190;2023-12-04T10:18:33;21.90;;;15.05;;
32214;SDS011;18708;53.124;23.190;2023-12-04T10:20:58;23.50;;;14.57;;
32214;SDS011;18708;53.124;23.190;2023-12-04T10:23:40;32.65;;;21.52;;
32214;SDS011;18708;53.124;23.190;2023-12-04T10:26:07;30.95;;;20.42;;
32214;SDS011;18708;53.124;23.190;2023-12-04T10:28:34;53.10;;;34.42;;
32214;SDS011;18708;53.124;23.190;2023-12-04T10:31:00;57.83;;;35.70;;
32214;SDS011;18708;53.124;23.190;2023-12-04T10:33:28;28.60;;;17.33;;
32214;SDS011;18708;53.124;23.190;2023-12-04T10:35:55;24.42;;;15.23;;
32214;SDS011;18708;53.124;23.190;2023-12-04T10:38:21;32.13;;;21.42;;
32214;SDS011;18708;53.124;23.190;2023-12-04T10:40:48;63.90;;;39.28;;
32214;SDS011;18708;53.124;23.190;2023-12-04T10:45:46;41.03;;;26.42;;
32214;SDS011;18708;53.124;23.190;2023-12-04T10:48:14;40.10;;;25.10;;
32214;SDS011;18708;53.124;23.190;2023-12-04T10:50:42;36.78;;;21.15;;
32214;SDS011;18708;53.124;23.190;2023-12-04T10:53:12;32.58;;;23.35;;
32214;SDS011;18708;53.124;23.190;2023-12-04T10:55:40;43.88;;;30.20;;
32214;SDS011;18708;53.124;23.190;2023-12-04T10:58:11;44.30;;;26.80;;
32214;SDS011;18708;53.124;23.190;2023-12-04T11:00:48;43.70;;;24.48;;
32214;SDS011;18708;53.124;23.190;2023-12-04T11:03:29;36.33;;;24.23;;
32214;SDS011;18708;53.124;23.190;2023-12-04T11:06:00;35.92;;;20.13;;
32214;SDS011;18708;53.124;23.190;2023-12-04T11:08:28;32.03;;;20.95;;
32214;SDS011;18708;53.124;23.190;2023-12-04T11:11:03;34.95;;;23.98;;
32214;SDS011;18708;53.124;23.190;2023-12-04T11:13:34;31.48;;;19.85;;
32214;SDS011;18708;53.124;23.190;2023-12-04T11:16:05;29.70;;;18.77;;
32214;SDS011;18708;53.124;23.190;2023-12-04T11:18:37;30.83;;;18.90;;
32214;SDS011;18708;53.124;23.190;2023-12-04T11:21:08;34.67;;;20.55;;
32214;SDS011;18708;53.124;23.190;2023-12-04T11:23:35;34.08;;;19.70;;
32214;SDS011;18708;53.124;23.190;2023-12-04T11:26:02;36.92;;;20.95;;
32214;SDS011;18708;53.124;23.190;2023-12-04T11:28:30;36.53;;;21.50;;
32214;SDS011;18708;53.124;23.190;2023-12-04T11:30:57;35.53;;;19.27;;
32214;SDS011;18708;53.124;23.190;2023-12-04T11:33:26;34.58;;;20.05;;
32214;SDS011;18708;53.124;23.190;2023-12-04T11:35:52;37.72;;;20.92;;
32214;SDS011;18708;53.124;23.190;2023-12-04T11:38:18;38.72;;;19.77;;
32214;SDS011;18708;53.124;23.190;2023-12-04T11:40:43;34.92;;;19.15;;
32214;SDS011;18708;53.124;23.190;2023-12-04T11:45:49;32.13;;;19.42;;
32214;SDS011;18708;53.124;23.190;2023-12-04T11:48:15;33.05;;;20.15;;
32214;SDS011;18708;53.124;23.190;2023-12-04T11:50:42;34.42;;;20.05;;
32214;SDS011;18708;53.124;23.190;2023-12-04T11:53:10;32.28;;;19.80;;
32214;SDS011;18708;53.124;23.190;2023-12-04T11:55:39;35.15;;;19.75;;
32214;SDS011;18708;53.124;23.190;2023-12-04T11:58:09;35.88;;;21.20;;
32214;SDS011;18708;53.124;23.190;2023-12-04T12:00:36;31.10;;;18.48;;
32214;SDS011;18708;53.124;23.190;2023-12-04T12:03:04;33.75;;;19.63;;
32214;SDS011;18708;53.124;23.190;2023-12-04T12:05:35;44.10;;;26.73;;
32214;SDS011;18708;53.124;23.190;2023-12-04T12:08:04;40.00;;;24.43;;
32214;SDS011;18708;53.124;23.190;2023-12-04T12:10:30;40.35;;;24.73;;
32214;SDS011;18708;53.124;23.190;2023-12-04T12:12:57;54.58;;;35.58;;
32214;SDS011;18708;53.124;23.190;2023-12-04T12:15:23;55.20;;;31.95;;
32214;SDS011;18708;53.124;23.190;2023-12-04T12:17:50;59.45;;;37.38;;
32214;SDS011;18708;53.124;23.190;2023-12-04T12:20:18;43.45;;;24.83;;
32214;SDS011;18708;53.124;23.190;2023-12-04T12:22:48;50.15;;;31.92;;
32214;SDS011;18708;53.124;23.190;2023-12-04T12:25:14;38.50;;;22.55;;
32214;SDS011;18708;53.124;23.190;2023-12-04T12:27:40;41.15;;;26.55;;
32214;SDS011;18708;53.124;23.190;2023-12-04T12:30:07;42.17;;;26.00;;
32214;SDS011;18708;53.124;23.190;2023-12-04T12:32:34;59.13;;;39.33;;
32214;SDS011;18708;53.124;23.190;2023-12-04T12:35:00;47.80;;;29.45;;
32214;SDS011;18708;53.124;23.190;2023-12-04T12:37:26;56.22;;;39.00;;
32214;SDS011;18708;53.124;23.190;2023-12-04T12:39:52;35.97;;;23.08;;
32214;SDS011;18708;53.124;23.190;2023-12-04T12:42:25;51.40;;;36.97;;
32214;SDS011;18708;53.124;23.190;2023-12-04T12:44:54;45.72;;;30.55;;
32214;SDS011;18708;53.124;23.190;2023-12-04T12:47:20;39.53;;;27.33;;
32214;SDS011;18708;53.124;23.190;2023-12-04T12:49:48;48.75;;;33.83;;
32214;SDS011;18708;53.124;23.190;2023-12-04T12:52:14;43.30;;;26.23;;
32214;SDS011;18708;53.124;23.190;2023-12-04T12:54:40;49.00;;;31.70;;
32214;SDS011;18708;53.124;23.190;2023-12-04T12:57:07;42.42;;;27.20;;
32214;SDS011;18708;53.124;23.190;2023-12-04T12:59:33;48.65;;;30.35;;
32214;SDS011;18708;53.124;23.190;2023-12-04T13:01:59;46.65;;;27.88;;
32214;SDS011;18708;53.124;23.190;2023-12-04T13:04:26;58.85;;;36.03;;
32214;SDS011;18708;53.124;23.190;2023-12-04T13:06:58;64.40;;;40.28;;
32214;SDS011;18708;53.124;23.190;2023-12-04T13:09:24;50.75;;;30.05;;
32214;SDS011;18708;53.124;23.190;2023-12-04T13:11:49;61.38;;;38.25;;
32214;SDS011;18708;53.124;23.190;2023-12-04T13:14:16;56.35;;;35.13;;
32214;SDS011;18708;53.124;23.190;2023-12-04T13:16:42;46.45;;;28.98;;
32214;SDS011;18708;53.124;23.190;2023-12-04T13:19:08;38.25;;;24.48;;
32214;SDS011;18708;53.124;23.190;2023-12-04T13:21:33;38.83;;;23.73;;
32214;SDS011;18708;53.124;23.190;2023-12-04T13:23:59;40.10;;;21.08;;
32214;SDS011;18708;53.124;23.190;2023-12-04T13:26:25;37.53;;;21.17;;
32214;SDS011;18708;53.124;23.190;2023-12-04T13:28:51;40.10;;;22.38;;
32214;SDS011;18708;53.124;23.190;2023-12-04T13:31:16;36.17;;;19.35;;
32214;SDS011;18708;53.124;23.190;2023-12-04T13:33:42;34.05;;;19.20;;
32214;SDS011;18708;53.124;23.190;2023-12-04T13:36:11;35.60;;;20.92;;
32214;SDS011;18708;53.124;23.190;2023-12-04T13:38:36;43.45;;;23.38;;
32214;SDS011;18708;53.124;23.190;2023-12-04T13:41:02;39.38;;;22.52;;
32214;SDS011;18708;53.124;23.190;2023-12-04T13:43:54;37.17;;;20.85;;
32214;SDS011;18708;53.124;23.190;2023-12-04T13:46:20;35.70;;;18.95;;
32214;SDS011;18708;53.124;23.190;2023-12-04T13:48:46;33.55;;;19.42;;
32214;SDS011;18708;53.124;23.190;2023-12-04T13:51:12;32.95;;;18.67;;
32214;SDS011;18708;53.124;23.190;2023-12-04T13:53:38;35.65;;;18.75;;
32214;SDS011;18708;53.124;23.190;2023-12-04T13:56:09;31.48;;;18.10;;
32214;SDS011;18708;53.124;23.190;2023-12-04T13:58:45;36.40;;;18.58;;
32214;SDS011;18708;53.124;23.190;2023-12-04T14:01:11;32.30;;;18.17;;
32214;SDS011;18708;53.124;23.190;2023-12-04T14:03:44;31.52;;;18.10;;
32214;SDS011;18708;53.124;23.190;2023-12-04T14:06:10;34.45;;;19.65;;
32214;SDS011;18708;53.124;23.190;2023-12-04T14:08:36;34.08;;;18.20;;
32214;SDS011;18708;53.124;23.190;2023-12-04T14:11:03;35.20;;;18.80;;
32214;SDS011;18708;53.124;23.190;2023-12-04T14:13:29;34.58;;;18.10;;